sensor_id;sensor_type;location;lat;lon;timestamp;P1;durP1;ratioP1;P2;durP2;ratioP2
73132;SDS011;61320;52.008;4.530;2022-11-18T10:56:25;4.85;;;4.85;;
73132;SDS011;61320;52.008;4.530;2022-11-18T10:58:52;4.87;;;4.87;;
73132;SDS011;61320;52.008;4.530;2022-11-18T11:01:23;4.81;;;4.80;;
73132;SDS011;61320;52.008;4.530;2022-11-18T11:06:40;4.77;;;4.76;;
73132;SDS011;61320;52.008;4.530;2022-11-18T11:11:39;5.13;;;5.13;;
73132;SDS011;61320;52.008;4.530;2022-11-18T11:14:14;5.40;;;5.40;;
73132;SDS011;61320;52.008;4.530;2022-11-18T11:16:44;5.48;;;5.48;;
73132;SDS011;61320;52.008;4.530;2022-11-18T11:19:18;5.71;;;5.71;;
73132;SDS011;61320;52.008;4.530;2022-11-18T11:21:48;5.31;;;5.31;;
73132;SDS011;61320;52.008;4.530;2022-11-18T11:24:17;5.23;;;5.23;;
73132;SDS011;61320;52.008;4.530;2022-11-18T11:26:58;5.24;;;5.24;;
73132;SDS011;61320;52.008;4.530;2022-11-18T11:29:59;5.30;;;5.30;;
73132;SDS011;61320;52.008;4.530;2022-11-18T11:32:34;5.55;;;5.55;;
73132;SDS011;61320;52.008;4.530;2022-11-18T20:26:58;23.96;;;23.96;;
73132;SDS011;61320;52.008;4.530;2022-11-18T20:29:24;26.82;;;26.82;;
73132;SDS011;61320;52.008;4.530;2022-11-18T20:31:50;27.09;;;27.04;;
73132;SDS011;61320;52.008;4.530;2022-11-18T20:34:19;26.37;;;26.37;;
73132;SDS011;61320;52.008;4.530;2022-11-18T20:36:44;25.95;;;25.95;;
73132;SDS011;61320;52.008;4.530;2022-11-18T20:39:13;26.04;;;26.03;;
73132;SDS011;61320;52.008;4.530;2022-11-18T20:41:39;26.64;;;26.55;;
73132;SDS011;61320;52.008;4.530;2022-11-18T20:44:06;27.63;;;27.63;;
73132;SDS011;61320;52.008;4.530;2022-11-18T20:46:34;27.11;;;26.84;;
73132;SDS011;61320;52.008;4.530;2022-11-18T20:49:00;27.76;;;27.47;;
73132;SDS011;61320;52.008;4.530;2022-11-18T20:51:28;28.24;;;28.24;;
73132;SDS011;61320;52.008;4.530;2022-11-18T20:53:54;28.75;;;28.66;;
73132;SDS011;61320;52.008;4.530;2022-11-18T20:59:03;28.11;;;28.02;;
73132;SDS011;61320;52.008;4.530;2022-11-18T21:01:28;26.74;;;26.70;;
73132;SDS011;61320;52.008;4.530;2022-11-18T21:03:55;26.42;;;26.33;;
73132;SDS011;61320;52.008;4.530;2022-11-18T21:06:23;27.32;;;27.28;;
73132;SDS011;61320;52.008;4.530;2022-11-18T21:08:54;26.63;;;26.17;;
73132;SDS011;61320;52.008;4.530;2022-11-18T21:11:22;27.43;;;27.34;;
73132;SDS011;61320;52.008;4.530;2022-11-18T21:13:48;27.11;;;26.97;;
73132;SDS011;61320;52.008;4.530;2022-11-18T21:16:31;27.06;;;26.98;;
73132;SDS011;61320;52.008;4.530;2022-11-18T21:18:57;28.95;;;28.85;;
73132;SDS011;61320;52.008;4.530;2022-11-18T21:21:23;28.28;;;28.25;;
73132;SDS011;61320;52.008;4.530;2022-11-18T21:24:07;29.08;;;28.67;;
73132;SDS011;61320;52.008;4.530;2022-11-18T21:26:33;31.87;;;31.67;;
73132;SDS011;61320;52.008;4.530;2022-11-18T21:29:01;33.42;;;32.31;;
73132;SDS011;61320;52.008;4.530;2022-11-18T21:31:30;32.79;;;32.25;;
73132;SDS011;61320;52.008;4.530;2022-11-18T21:33:56;33.20;;;31.59;;
73132;SDS011;61320;52.008;4.530;2022-11-18T21:36:22;32.59;;;31.22;;
73132;SDS011;61320;52.008;4.530;2022-11-18T21:38:49;33.71;;;31.95;;
73132;SDS011;61320;52.008;4.530;2022-11-18T21:41:15;32.57;;;30.84;;
73132;SDS011;61320;52.008;4.530;2022-11-18T21:43:41;28.35;;;27.12;;
73132;SDS011;61320;52.008;4.530;2022-11-18T21:46:08;24.46;;;24.31;;
73132;SDS011;61320;52.008;4.530;2022-11-18T21:48:38;21.06;;;20.94;;
73132;SDS011;61320;52.008;4.530;2022-11-18T21:51:11;18.12;;;17.94;;
73132;SDS011;61320;52.008;4.530;2022-11-18T21:53:39;17.62;;;17.58;;
73132;SDS011;61320;52.008;4.530;2022-11-18T21:56:09;16.47;;;16.38;;
73132;SDS011;61320;52.008;4.530;2022-11-18T21:58:39;14.41;;;14.39;;
73132;SDS011;61320;52.008;4.530;2022-11-18T22:01:06;15.11;;;15.10;;
73132;SDS011;61320;52.008;4.530;2022-11-18T22:03:33;14.88;;;14.88;;
73132;SDS011;61320;52.008;4.530;2022-11-18T22:06:00;14.77;;;14.77;;
73132;SDS011;61320;52.008;4.530;2022-11-18T22:08:26;13.69;;;13.69;;
73132;SDS011;61320;52.008;4.530;2022-11-18T22:10:52;13.44;;;13.35;;
73132;SDS011;61320;52.008;4.530;2022-11-18T22:13:18;13.57;;;13.54;;
73132;SDS011;61320;52.008;4.530;2022-11-18T22:15:43;12.91;;;12.87;;
73132;SDS011;61320;52.008;4.530;2022-11-18T22:18:09;13.63;;;13.54;;
73132;SDS011;61320;52.008;4.530;2022-11-18T22:20:34;13.54;;;13.54;;
73132;SDS011;61320;52.008;4.530;2022-11-18T22:23:00;13.97;;;13.96;;
73132;SDS011;61320;52.008;4.530;2022-11-18T22:25:26;14.66;;;14.34;;
73132;SDS011;61320;52.008;4.530;2022-11-18T22:27:54;13.46;;;13.31;;
73132;SDS011;61320;52.008;4.530;2022-11-18T22:30:20;14.66;;;14.31;;
73132;SDS011;61320;52.008;4.530;2022-11-18T22:32:45;15.57;;;15.06;;
73132;SDS011;61320;52.008;4.530;2022-11-18T22:35:11;15.87;;;15.36;;
73132;SDS011;61320;52.008;4.530;2022-11-18T22:37:36;16.05;;;15.76;;
73132;SDS011;61320;52.008;4.530;2022-11-18T22:40:02;16.51;;;16.24;;
73132;SDS011;61320;52.008;4.530;2022-11-18T22:42:28;17.24;;;16.70;;
73132;SDS011;61320;52.008;4.530;2022-11-18T22:45:11;17.05;;;16.73;;
73132;SDS011;61320;52.008;4.530;2022-11-18T22:47:37;17.07;;;16.69;;
73132;SDS011;61320;52.008;4.530;2022-11-18T22:50:03;16.64;;;16.27;;
73132;SDS011;61320;52.008;4.530;2022-11-18T22:52:29;15.99;;;15.83;;
73132;SDS011;61320;52.008;4.530;2022-11-18T22:54:55;16.31;;;16.01;;
73132;SDS011;61320;52.008;4.530;2022-11-18T22:57:20;16.68;;;16.49;;
73132;SDS011;61320;52.008;4.530;2022-11-18T22:59:45;17.36;;;17.22;;
73132;SDS011;61320;52.008;4.530;2022-11-18T23:02:11;17.88;;;17.63;;
73132;SDS011;61320;52.008;4.530;2022-11-18T23:04:37;18.38;;;17.87;;
73132;SDS011;61320;52.008;4.530;2022-11-18T23:07:02;18.61;;;18.16;;
73132;SDS011;61320;52.008;4.530;2022-11-18T23:09:28;18.09;;;18.01;;
73132;SDS011;61320;52.008;4.530;2022-11-18T23:11:53;19.23;;;18.89;;
73132;SDS011;61320;52.008;4.530;2022-11-18T23:14:38;19.55;;;19.11;;
73132;SDS011;61320;52.008;4.530;2022-11-18T23:17:03;18.97;;;18.50;;
73132;SDS011;61320;52.008;4.530;2022-11-18T23:19:29;19.66;;;19.06;;
73132;SDS011;61320;52.008;4.530;2022-11-18T23:21:54;18.91;;;18.35;;
73132;SDS011;61320;52.008;4.530;2022-11-18T23:24:23;18.56;;;18.14;;
73132;SDS011;61320;52.008;4.530;2022-11-18T23:26:49;18.34;;;17.79;;
73132;SDS011;61320;52.008;4.530;2022-11-18T23:29:15;18.31;;;17.75;;
73132;SDS011;61320;52.008;4.530;2022-11-18T23:31:41;17.93;;;17.45;;
73132;SDS011;61320;52.008;4.530;2022-11-18T23:34:09;17.60;;;17.24;;
73132;SDS011;61320;52.008;4.530;2022-11-18T23:36:36;17.93;;;17.37;;
73132;SDS011;61320;52.008;4.530;2022-11-18T23:39:01;17.96;;;17.42;;
73132;SDS011;61320;52.008;4.530;2022-11-18T23:41:27;18.28;;;17.70;;
73132;SDS011;61320;52.008;4.530;2022-11-18T23:43:53;18.45;;;17.93;;
73132;SDS011;61320;52.008;4.530;2022-11-18T23:46:19;18.49;;;17.99;;
73132;SDS011;61320;52.008;4.530;2022-11-18T23:48:45;19.32;;;18.66;;
73132;SDS011;61320;52.008;4.530;2022-11-18T23:53:39;17.02;;;16.79;;
73132;SDS011;61320;52.008;4.530;2022-11-18T23:56:09;16.95;;;16.73;;
73132;SDS011;61320;52.008;4.530;2022-11-18T23:58:43;15.32;;;15.22;;
